ADDS METAR Data INFO
IDs: Format: Raw Decoded Include TAF

Data at: 0042 UTC 23 Oct 2017

KMGY 222353Z AUTO 14007KT 10SM CLR 19/09 A3010 RMK AO2 SLP190 T01890089 10244 20189 55003
KMGY 222253Z AUTO 17008KT 10SM CLR 20/09 A3009 RMK AO2 SLP187 T02000094
KMGY 222153Z AUTO 17006KT 10SM CLR 21/10 A3010 RMK AO2 SLP191 T02110100
KMGY 222053Z AUTO 18011KT 10SM CLR 23/10 A3011 RMK AO2 SLP192 T02280100 56012
KMGY 221953Z AUTO 18012KT 10SM CLR 24/11 A3011 RMK AO2 SLP191 T02390111
KMGY 221853Z AUTO 18011KT 10SM CLR 23/12 A3011 RMK AO2 SLP192 T02330122
KMGY 221753Z AUTO 20011KT 10SM CLR 23/12 A3014 RMK AO2 SLP203 T02330117 10233 20139 58019
KMGY 221653Z AUTO 20013G21KT 10SM CLR 23/12 A3018 RMK AO2 SLP216 T02280117
KMGY 221553Z AUTO 20012G21KT 10SM CLR 22/11 A3020 RMK AO2 SLP222 T02170111
KMGY 221453Z AUTO 19015KT 10SM CLR 20/10 A3020 RMK AO2 SLP224 T02000100 50007
KMGY 221353Z AUTO 17010KT 10SM CLR 18/10 A3021 RMK AO2 SLP227 T01780100
KMGY 221253Z AUTO 17009KT 10SM CLR 15/09 A3020 RMK AO2 SLP223 T01500089
KMGY 221153Z AUTO 17008KT 10SM CLR 14/09 A3018 RMK AO2 SLP218 T01390089 10156 20128 53001
KMGY 221053Z AUTO 18007KT 10SM CLR 14/09 A3018 RMK AO2 SLP216 T01390089
KMGY 220953Z AUTO 17008KT 10SM CLR 13/09 A3017 RMK AO2 SLP214 T01330089
KMGY 220853Z AUTO 18006KT 10SM CLR 13/09 A3018 RMK AO2 SLP217 T01280089 50000
KMGY 220753Z AUTO 17006KT 10SM CLR 14/09 A3018 RMK AO2 SLP217 T01390089
KMGY 220653Z AUTO 16005KT 10SM CLR 15/08 A3019 RMK AO2 SLP220 T01500083
KMGY 220553Z AUTO 16006KT 10SM CLR 14/08 A3018 RMK AO2 SLP216 T01440083 10178 20139 58007
KMGY 220453Z AUTO 17004KT 10SM CLR 15/08 A3019 RMK AO2 SLP219 T01500083 402220122
KMGY 220353Z AUTO 16003KT 10SM CLR 15/08 A3019 RMK AO2 SLP220 T01500083
KMGY 220253Z AUTO 15006KT 10SM CLR 16/09 A3020 RMK AO2 SLP223 T01610089 58003
KMGY 220153Z AUTO 15007KT 10SM CLR 18/09 A3021 RMK AO2 SLP226 T01780094
KMGY 220053Z AUTO 15006KT 10SM CLR 17/10 A3021 RMK AO2 SLP228 T01670100
KMGY 212353Z AUTO 12004KT 10SM CLR 17/10 A3021 RMK AO2 SLP228 T01720100 10222 20167 52001
KMGY 212253Z AUTO 14003KT 10SM CLR 18/09 A3021 RMK AO2 SLP227 T01830089
KMGY 212153Z AUTO 19005KT 10SM CLR 21/08 A3021 RMK AO2 SLP226 T02060083
KMGY 212053Z AUTO 20008KT 10SM CLR 21/08 A3021 RMK AO2 SLP226 T02110083 56007
KMGY 211953Z AUTO 22006KT 10SM CLR 22/08 A3021 RMK AO2 SLP227 T02220083
KMGY 211853Z AUTO 19008KT 10SM CLR 21/08 A3021 RMK AO2 SLP225 T02110078
KMGY 211753Z AUTO 20007KT 10SM CLR 21/09 A3023 RMK AO2 SLP233 T02060089 10217 20122 58007
KMGY 211653Z AUTO 22010KT 10SM CLR 21/09 A3025 RMK AO2 SLP238 T02110089
KMGY 211553Z AUTO 19009KT 10SM CLR 20/12 A3025 RMK AO2 SLP240 T02000117
KMGY 211453Z AUTO 19009KT 10SM CLR 19/12 A3025 RMK AO2 SLP240 T01890117 50008
KMGY 211353Z AUTO 17006KT 10SM CLR 17/12 A3025 RMK AO2 SLP241 T01670122
KMGY 211253Z AUTO 18005KT 10SM CLR 14/11 A3024 RMK AO2 SLP236 T01390111